sensor_id;sensor_type;location;lat;lon;timestamp;temperature;humidity
36450;DHT22;22475;51.390;7.180;2022-11-23T00:01:26;11.80;93.20
36450;DHT22;22475;51.390;7.180;2022-11-23T00:03:54;11.80;93.10
36450;DHT22;22475;51.390;7.180;2022-11-23T00:06:23;11.70;93.10
36450;DHT22;22475;51.390;7.180;2022-11-23T00:08:50;11.80;93.10
36450;DHT22;22475;51.390;7.180;2022-11-23T00:11:18;11.80;93.10
36450;DHT22;22475;51.390;7.180;2022-11-23T00:13:46;11.70;93.10
36450;DHT22;22475;51.390;7.180;2022-11-23T00:16:15;11.80;93.20
36450;DHT22;22475;51.390;7.180;2022-11-23T00:18:43;11.80;93.20
36450;DHT22;22475;51.390;7.180;2022-11-23T00:21:12;11.80;93.10
36450;DHT22;22475;51.390;7.180;2022-11-23T00:23:39;11.80;93.20
36450;DHT22;22475;51.390;7.180;2022-11-23T00:26:06;11.70;93.10
36450;DHT22;22475;51.390;7.180;2022-11-23T00:28:33;11.70;93.10
36450;DHT22;22475;51.390;7.180;2022-11-23T00:31:03;11.80;93.20
36450;DHT22;22475;51.390;7.180;2022-11-23T00:33:30;11.70;93.20
36450;DHT22;22475;51.390;7.180;2022-11-23T00:36:03;11.80;93.20
36450;DHT22;22475;51.390;7.180;2022-11-23T00:38:30;11.70;93.50
36450;DHT22;22475;51.390;7.180;2022-11-23T00:40:58;11.80;93.20
36450;DHT22;22475;51.390;7.180;2022-11-23T00:43:25;11.80;93.20
36450;DHT22;22475;51.390;7.180;2022-11-23T00:46:02;11.80;93.20
36450;DHT22;22475;51.390;7.180;2022-11-23T00:48:29;11.80;93.20
36450;DHT22;22475;51.390;7.180;2022-11-23T00:50:56;11.80;93.20
36450;DHT22;22475;51.390;7.180;2022-11-23T00:53:24;11.80;93.20
36450;DHT22;22475;51.390;7.180;2022-11-23T00:55:51;11.80;93.20
36450;DHT22;22475;51.390;7.180;2022-11-23T00:58:18;11.80;93.20
36450;DHT22;22475;51.390;7.180;2022-11-23T01:00:45;11.80;93.10
36450;DHT22;22475;51.390;7.180;2022-11-23T01:03:12;11.80;93.10
36450;DHT22;22475;51.390;7.180;2022-11-23T01:05:39;11.80;93.10
36450;DHT22;22475;51.390;7.180;2022-11-23T01:08:06;11.80;93.40
36450;DHT22;22475;51.390;7.180;2022-11-23T01:10:34;11.80;93.10
36450;DHT22;22475;51.390;7.180;2022-11-23T01:13:01;11.80;93.20
36450;DHT22;22475;51.390;7.180;2022-11-23T01:15:28;11.80;93.20
36450;DHT22;22475;51.390;7.180;2022-11-23T01:17:54;11.80;93.00
36450;DHT22;22475;51.390;7.180;2022-11-23T01:20:21;11.80;93.30
36450;DHT22;22475;51.390;7.180;2022-11-23T01:22:50;11.80;93.20
36450;DHT22;22475;51.390;7.180;2022-11-23T01:25:17;11.80;93.20
36450;DHT22;22475;51.390;7.180;2022-11-23T01:27:45;11.80;93.20
36450;DHT22;22475;51.390;7.180;2022-11-23T01:30:13;11.90;93.20
36450;DHT22;22475;51.390;7.180;2022-11-23T01:32:39;11.80;93.10
36450;DHT22;22475;51.390;7.180;2022-11-23T01:35:07;11.80;93.10
36450;DHT22;22475;51.390;7.180;2022-11-23T01:37:33;11.80;93.20
36450;DHT22;22475;51.390;7.180;2022-11-23T01:40:00;11.90;93.20
36450;DHT22;22475;51.390;7.180;2022-11-23T01:42:42;11.80;93.20
36450;DHT22;22475;51.390;7.180;2022-11-23T01:45:33;11.80;93.10
36450;DHT22;22475;51.390;7.180;2022-11-23T01:48:02;11.80;93.10
36450;DHT22;22475;51.390;7.180;2022-11-23T01:50:30;11.80;93.20
36450;DHT22;22475;51.390;7.180;2022-11-23T01:52:57;11.80;93.50
36450;DHT22;22475;51.390;7.180;2022-11-23T01:55:25;11.80;93.20
36450;DHT22;22475;51.390;7.180;2022-11-23T01:57:53;11.80;93.30
36450;DHT22;22475;51.390;7.180;2022-11-23T02:00:21;11.80;93.30
36450;DHT22;22475;51.390;7.180;2022-11-23T02:02:54;11.80;93.30
36450;DHT22;22475;51.390;7.180;2022-11-23T02:05:24;11.80;93.30
36450;DHT22;22475;51.390;7.180;2022-11-23T02:07:53;11.80;93.30
36450;DHT22;22475;51.390;7.180;2022-11-23T02:10:20;11.80;93.30
36450;DHT22;22475;51.390;7.180;2022-11-23T02:12:48;11.80;93.30
36450;DHT22;22475;51.390;7.180;2022-11-23T02:15:15;11.80;93.30
36450;DHT22;22475;51.390;7.180;2022-11-23T02:17:42;11.80;93.30
36450;DHT22;22475;51.390;7.180;2022-11-23T02:20:12;11.80;93.30
36450;DHT22;22475;51.390;7.180;2022-11-23T02:22:46;11.80;93.30
36450;DHT22;22475;51.390;7.180;2022-11-23T02:25:28;11.90;93.30
36450;DHT22;22475;51.390;7.180;2022-11-23T02:27:58;11.80;93.30
36450;DHT22;22475;51.390;7.180;2022-11-23T02:30:26;11.90;93.30
36450;DHT22;22475;51.390;7.180;2022-11-23T02:32:54;11.90;93.30
36450;DHT22;22475;51.390;7.180;2022-11-23T02:35:20;11.90;93.30
36450;DHT22;22475;51.390;7.180;2022-11-23T02:37:48;11.90;93.30
36450;DHT22;22475;51.390;7.180;2022-11-23T02:40:24;11.90;93.30
36450;DHT22;22475;51.390;7.180;2022-11-23T02:42:51;11.90;93.30
36450;DHT22;22475;51.390;7.180;2022-11-23T02:45:25;11.90;93.30
36450;DHT22;22475;51.390;7.180;2022-11-23T02:47:53;11.90;93.30
36450;DHT22;22475;51.390;7.180;2022-11-23T02:50:20;11.90;93.20
36450;DHT22;22475;51.390;7.180;2022-11-23T02:52:46;12.00;93.20
36450;DHT22;22475;51.390;7.180;2022-11-23T02:55:13;11.90;93.20
36450;DHT22;22475;51.390;7.180;2022-11-23T02:57:40;11.90;93.50
36450;DHT22;22475;51.390;7.180;2022-11-23T03:00:08;11.90;93.20
36450;DHT22;22475;51.390;7.180;2022-11-23T03:02:36;12.00;93.20
36450;DHT22;22475;51.390;7.180;2022-11-23T03:05:04;12.00;93.20
36450;DHT22;22475;51.390;7.180;2022-11-23T03:07:31;12.00;93.20
36450;DHT22;22475;51.390;7.180;2022-11-23T03:09:58;11.90;93.20
36450;DHT22;22475;51.390;7.180;2022-11-23T03:12:24;12.00;93.20
36450;DHT22;22475;51.390;7.180;2022-11-23T03:14:51;12.00;93.20
36450;DHT22;22475;51.390;7.180;2022-11-23T03:17:18;12.00;93.20
36450;DHT22;22475;51.390;7.180;2022-11-23T03:19:46;12.00;93.20
36450;DHT22;22475;51.390;7.180;2022-11-23T03:22:13;12.00;93.20
36450;DHT22;22475;51.390;7.180;2022-11-23T03:24:39;12.00;93.20
36450;DHT22;22475;51.390;7.180;2022-11-23T03:27:06;12.00;93.20
36450;DHT22;22475;51.390;7.180;2022-11-23T03:29:33;12.00;93.20
36450;DHT22;22475;51.390;7.180;2022-11-23T03:32:00;12.00;93.20
36450;DHT22;22475;51.390;7.180;2022-11-23T03:34:27;12.00;93.20
36450;DHT22;22475;51.390;7.180;2022-11-23T03:36:55;12.00;93.30
36450;DHT22;22475;51.390;7.180;2022-11-23T03:39:21;12.00;93.30
36450;DHT22;22475;51.390;7.180;2022-11-23T03:41:48;12.00;93.30
36450;DHT22;22475;51.390;7.180;2022-11-23T03:44:15;12.00;93.30
36450;DHT22;22475;51.390;7.180;2022-11-23T03:46:42;12.00;93.30
36450;DHT22;22475;51.390;7.180;2022-11-23T03:49:08;12.00;93.30
36450;DHT22;22475;51.390;7.180;2022-11-23T03:51:35;12.00;93.30
36450;DHT22;22475;51.390;7.180;2022-11-23T03:54:04;12.00;93.30
36450;DHT22;22475;51.390;7.180;2022-11-23T03:56:30;12.00;93.40
36450;DHT22;22475;51.390;7.180;2022-11-23T03:58:57;12.00;93.40
36450;DHT22;22475;51.390;7.180;2022-11-23T04:01:24;12.00;93.30
36450;DHT22;22475;51.390;7.180;2022-11-23T04:03:51;12.00;93.40
36450;DHT22;22475;51.390;7.180;2022-11-23T04:06:17;12.00;93.40
36450;DHT22;22475;51.390;7.180;2022-11-23T04:08:44;12.00;93.40
36450;DHT22;22475;51.390;7.180;2022-11-23T04:11:12;12.00;93.40
36450;DHT22;22475;51.390;7.180;2022-11-23T04:13:39;12.00;93.40
36450;DHT22;22475;51.390;7.180;2022-11-23T04:16:06;12.00;93.40
36450;DHT22;22475;51.390;7.180;2022-11-23T04:18:33;12.00;93.40
36450;DHT22;22475;51.390;7.180;2022-11-23T04:21:00;12.00;93.50
36450;DHT22;22475;51.390;7.180;2022-11-23T04:23:26;12.00;93.50
36450;DHT22;22475;51.390;7.180;2022-11-23T04:25:53;12.00;93.50
36450;DHT22;22475;51.390;7.180;2022-11-23T04:28:21;12.00;93.40
36450;DHT22;22475;51.390;7.180;2022-11-23T04:30:48;12.00;93.40
36450;DHT22;22475;51.390;7.180;2022-11-23T04:33:15;12.00;93.40
36450;DHT22;22475;51.390;7.180;2022-11-23T04:35:41;12.00;93.40
36450;DHT22;22475;51.390;7.180;2022-11-23T04:38:08;12.00;93.50
36450;DHT22;22475;51.390;7.180;2022-11-23T04:40:35;12.00;93.50
36450;DHT22;22475;51.390;7.180;2022-11-23T04:43:03;12.00;93.50
36450;DHT22;22475;51.390;7.180;2022-11-23T04:45:32;12.00;93.50
36450;DHT22;22475;51.390;7.180;2022-11-23T04:47:59;12.00;93.40
36450;DHT22;22475;51.390;7.180;2022-11-23T04:50:25;12.00;93.50
36450;DHT22;22475;51.390;7.180;2022-11-23T04:52:52;12.00;93.50
36450;DHT22;22475;51.390;7.180;2022-11-23T04:55:19;12.00;93.50
36450;DHT22;22475;51.390;7.180;2022-11-23T04:57:46;11.90;93.50
36450;DHT22;22475;51.390;7.180;2022-11-23T05:00:13;11.90;93.50
36450;DHT22;22475;51.390;7.180;2022-11-23T05:02:42;11.90;93.60
36450;DHT22;22475;51.390;7.180;2022-11-23T05:05:08;11.90;93.60
36450;DHT22;22475;51.390;7.180;2022-11-23T05:07:36;11.90;93.60
36450;DHT22;22475;51.390;7.180;2022-11-23T05:10:03;11.90;93.50
36450;DHT22;22475;51.390;7.180;2022-11-23T05:12:30;11.90;93.60
36450;DHT22;22475;51.390;7.180;2022-11-23T05:14:56;11.90;93.60
36450;DHT22;22475;51.390;7.180;2022-11-23T05:17:23;11.90;93.50
36450;DHT22;22475;51.390;7.180;2022-11-23T05:19:51;11.90;93.50
36450;DHT22;22475;51.390;7.180;2022-11-23T05:22:18;11.90;93.60
36450;DHT22;22475;51.390;7.180;2022-11-23T05:24:45;11.90;93.60
36450;DHT22;22475;51.390;7.180;2022-11-23T05:27:12;11.90;93.70
36450;DHT22;22475;51.390;7.180;2022-11-23T05:29:38;11.90;93.70
36450;DHT22;22475;51.390;7.180;2022-11-23T05:32:05;11.80;93.60
36450;DHT22;22475;51.390;7.180;2022-11-23T05:34:32;11.80;93.60
36450;DHT22;22475;51.390;7.180;2022-11-23T05:37:00;11.80;93.60
36450;DHT22;22475;51.390;7.180;2022-11-23T05:39:27;11.80;93.60
36450;DHT22;22475;51.390;7.180;2022-11-23T05:41:53;11.80;93.60
36450;DHT22;22475;51.390;7.180;2022-11-23T05:44:20;11.80;94.00
36450;DHT22;22475;51.390;7.180;2022-11-23T05:46:47;11.80;93.70
36450;DHT22;22475;51.390;7.180;2022-11-23T05:49:14;11.80;93.70
36450;DHT22;22475;51.390;7.180;2022-11-23T05:51:40;11.80;93.70
36450;DHT22;22475;51.390;7.180;2022-11-23T05:54:08;11.90;93.70
36450;DHT22;22475;51.390;7.180;2022-11-23T05:56:35;11.90;93.70
36450;DHT22;22475;51.390;7.180;2022-11-23T05:59:02;11.90;93.70
36450;DHT22;22475;51.390;7.180;2022-11-23T06:01:29;11.90;93.70
36450;DHT22;22475;51.390;7.180;2022-11-23T06:03:57;11.90;93.70
36450;DHT22;22475;51.390;7.180;2022-11-23T06:06:24;11.90;93.70
36450;DHT22;22475;51.390;7.180;2022-11-23T06:08:51;11.90;93.70
36450;DHT22;22475;51.390;7.180;2022-11-23T06:11:19;11.90;93.70
36450;DHT22;22475;51.390;7.180;2022-11-23T06:13:45;11.90;93.70
36450;DHT22;22475;51.390;7.180;2022-11-23T06:16:13;11.90;93.60
36450;DHT22;22475;51.390;7.180;2022-11-23T06:18:39;11.90;93.70
36450;DHT22;22475;51.390;7.180;2022-11-23T06:21:06;12.00;93.70
36450;DHT22;22475;51.390;7.180;2022-11-23T06:23:33;12.00;93.70
36450;DHT22;22475;51.390;7.180;2022-11-23T06:26:00;12.00;93.70
36450;DHT22;22475;51.390;7.180;2022-11-23T06:28:28;12.00;93.60
36450;DHT22;22475;51.390;7.180;2022-11-23T06:30:55;12.00;93.60
36450;DHT22;22475;51.390;7.180;2022-11-23T06:33:21;12.00;93.70
36450;DHT22;22475;51.390;7.180;2022-11-23T06:35:53;12.00;93.60
36450;DHT22;22475;51.390;7.180;2022-11-23T06:38:20;12.00;93.60
36450;DHT22;22475;51.390;7.180;2022-11-23T06:40:46;12.00;93.60
36450;DHT22;22475;51.390;7.180;2022-11-23T06:43:13;12.00;93.60
36450;DHT22;22475;51.390;7.180;2022-11-23T06:45:42;12.00;93.50
36450;DHT22;22475;51.390;7.180;2022-11-23T06:48:09;12.00;93.60
36450;DHT22;22475;51.390;7.180;2022-11-23T06:50:35;12.00;93.60
36450;DHT22;22475;51.390;7.180;2022-11-23T06:53:02;12.00;93.60
36450;DHT22;22475;51.390;7.180;2022-11-23T06:55:29;12.00;93.60
36450;DHT22;22475;51.390;7.180;2022-11-23T06:57:56;12.00;93.90
36450;DHT22;22475;51.390;7.180;2022-11-23T07:00:23;12.00;93.60
36450;DHT22;22475;51.390;7.180;2022-11-23T07:02:52;12.00;93.60
36450;DHT22;22475;51.390;7.180;2022-11-23T07:05:20;12.00;93.70
36450;DHT22;22475;51.390;7.180;2022-11-23T07:07:47;12.00;93.60
36450;DHT22;22475;51.390;7.180;2022-11-23T07:10:14;12.00;93.50
36450;DHT22;22475;51.390;7.180;2022-11-23T07:12:41;12.00;93.50
36450;DHT22;22475;51.390;7.180;2022-11-23T07:15:09;12.00;93.60
36450;DHT22;22475;51.390;7.180;2022-11-23T07:17:37;12.00;93.60
36450;DHT22;22475;51.390;7.180;2022-11-23T07:20:07;12.00;93.50
36450;DHT22;22475;51.390;7.180;2022-11-23T07:22:35;12.00;93.60
36450;DHT22;22475;51.390;7.180;2022-11-23T07:25:02;12.00;93.50
36450;DHT22;22475;51.390;7.180;2022-11-23T07:27:29;12.00;93.50
36450;DHT22;22475;51.390;7.180;2022-11-23T07:29:56;12.00;93.40
36450;DHT22;22475;51.390;7.180;2022-11-23T07:32:23;12.00;93.40
36450;DHT22;22475;51.390;7.180;2022-11-23T07:34:50;12.00;93.40
36450;DHT22;22475;51.390;7.180;2022-11-23T07:37:18;11.90;93.40
36450;DHT22;22475;51.390;7.180;2022-11-23T07:39:45;11.90;93.40
36450;DHT22;22475;51.390;7.180;2022-11-23T07:42:11;11.90;93.40
36450;DHT22;22475;51.390;7.180;2022-11-23T07:44:38;11.90;93.40
36450;DHT22;22475;51.390;7.180;2022-11-23T07:47:05;11.90;93.50
36450;DHT22;22475;51.390;7.180;2022-11-23T07:49:32;11.90;93.50
36450;DHT22;22475;51.390;7.180;2022-11-23T07:51:58;11.90;93.50
36450;DHT22;22475;51.390;7.180;2022-11-23T07:54:26;11.90;93.50
36450;DHT22;22475;51.390;7.180;2022-11-23T07:56:53;11.90;93.50
36450;DHT22;22475;51.390;7.180;2022-11-23T07:59:20;11.90;93.40
36450;DHT22;22475;51.390;7.180;2022-11-23T08:01:46;11.90;93.40
36450;DHT22;22475;51.390;7.180;2022-11-23T08:04:13;11.90;93.40
36450;DHT22;22475;51.390;7.180;2022-11-23T08:06:40;11.90;93.40
36450;DHT22;22475;51.390;7.180;2022-11-23T08:09:07;11.90;93.30
36450;DHT22;22475;51.390;7.180;2022-11-23T08:11:35;11.80;93.30
36450;DHT22;22475;51.390;7.180;2022-11-23T08:14:02;11.90;93.40
36450;DHT22;22475;51.390;7.180;2022-11-23T08:16:28;11.80;93.40
36450;DHT22;22475;51.390;7.180;2022-11-23T08:18:56;11.90;93.50
36450;DHT22;22475;51.390;7.180;2022-11-23T08:21:22;11.90;93.60
36450;DHT22;22475;51.390;7.180;2022-11-23T08:23:49;11.90;93.60
36450;DHT22;22475;51.390;7.180;2022-11-23T08:26:16;11.90;93.70
36450;DHT22;22475;51.390;7.180;2022-11-23T08:28:44;11.90;93.60
36450;DHT22;22475;51.390;7.180;2022-11-23T08:31:11;11.90;93.60
36450;DHT22;22475;51.390;7.180;2022-11-23T08:33:39;11.90;93.50
36450;DHT22;22475;51.390;7.180;2022-11-23T08:36:07;11.90;93.40
36450;DHT22;22475;51.390;7.180;2022-11-23T08:38:34;11.90;93.40
36450;DHT22;22475;51.390;7.180;2022-11-23T08:41:02;11.90;93.40
36450;DHT22;22475;51.390;7.180;2022-11-23T08:43:29;11.90;93.40
36450;DHT22;22475;51.390;7.180;2022-11-23T08:45:58;11.90;93.30
36450;DHT22;22475;51.390;7.180;2022-11-23T08:48:26;11.90;93.30
36450;DHT22;22475;51.390;7.180;2022-11-23T08:50:53;11.80;93.20
36450;DHT22;22475;51.390;7.180;2022-11-23T08:53:20;11.90;93.20
36450;DHT22;22475;51.390;7.180;2022-11-23T08:55:47;11.90;93.30
36450;DHT22;22475;51.390;7.180;2022-11-23T08:58:13;11.90;93.30
36450;DHT22;22475;51.390;7.180;2022-11-23T09:00:40;11.90;93.20
36450;DHT22;22475;51.390;7.180;2022-11-23T09:03:08;11.90;93.20
36450;DHT22;22475;51.390;7.180;2022-11-23T09:05:37;11.90;93.10
36450;DHT22;22475;51.390;7.180;2022-11-23T09:08:04;11.90;93.10
36450;DHT22;22475;51.390;7.180;2022-11-23T09:10:31;11.90;93.00
36450;DHT22;22475;51.390;7.180;2022-11-23T09:12:58;11.90;92.90
36450;DHT22;22475;51.390;7.180;2022-11-23T09:15:25;11.90;92.90
36450;DHT22;22475;51.390;7.180;2022-11-23T09:17:51;11.90;93.00
36450;DHT22;22475;51.390;7.180;2022-11-23T09:20:20;11.90;92.90
36450;DHT22;22475;51.390;7.180;2022-11-23T09:22:50;11.90;92.80
36450;DHT22;22475;51.390;7.180;2022-11-23T09:25:18;11.80;92.80
36450;DHT22;22475;51.390;7.180;2022-11-23T09:27:44;11.90;92.90
36450;DHT22;22475;51.390;7.180;2022-11-23T09:30:12;11.90;92.90
36450;DHT22;22475;51.390;7.180;2022-11-23T09:32:39;11.90;93.00
36450;DHT22;22475;51.390;7.180;2022-11-23T09:35:07;11.90;93.00
36450;DHT22;22475;51.390;7.180;2022-11-23T09:37:35;11.90;93.00
36450;DHT22;22475;51.390;7.180;2022-11-23T09:40:02;11.90;93.00
36450;DHT22;22475;51.390;7.180;2022-11-23T09:42:50;11.90;93.10
36450;DHT22;22475;51.390;7.180;2022-11-23T09:45:29;11.90;93.00
36450;DHT22;22475;51.390;7.180;2022-11-23T09:48:18;12.00;93.00
36450;DHT22;22475;51.390;7.180;2022-11-23T09:50:55;12.00;93.00
36450;DHT22;22475;51.390;7.180;2022-11-23T09:53:31;12.00;92.90
36450;DHT22;22475;51.390;7.180;2022-11-23T09:56:02;12.00;92.90
36450;DHT22;22475;51.390;7.180;2022-11-23T09:58:34;12.00;92.90
36450;DHT22;22475;51.390;7.180;2022-11-23T10:01:03;12.00;92.90
36450;DHT22;22475;51.390;7.180;2022-11-23T10:03:33;12.00;92.90
36450;DHT22;22475;51.390;7.180;2022-11-23T10:06:04;12.10;93.00
36450;DHT22;22475;51.390;7.180;2022-11-23T10:08:42;12.10;93.00
36450;DHT22;22475;51.390;7.180;2022-11-23T10:11:34;12.10;92.80
36450;DHT22;22475;51.390;7.180;2022-11-23T10:14:15;12.10;92.80
36450;DHT22;22475;51.390;7.180;2022-11-23T10:16:50;12.10;92.80
36450;DHT22;22475;51.390;7.180;2022-11-23T10:19:25;12.10;92.80
36450;DHT22;22475;51.390;7.180;2022-11-23T10:22:01;12.10;92.80
36450;DHT22;22475;51.390;7.180;2022-11-23T10:24:33;12.10;92.70
36450;DHT22;22475;51.390;7.180;2022-11-23T10:27:12;12.10;92.60
36450;DHT22;22475;51.390;7.180;2022-11-23T10:29:41;12.10;92.60
36450;DHT22;22475;51.390;7.180;2022-11-23T10:32:19;12.10;92.60
36450;DHT22;22475;51.390;7.180;2022-11-23T10:34:53;12.10;92.60
36450;DHT22;22475;51.390;7.180;2022-11-23T10:37:22;12.10;92.60
36450;DHT22;22475;51.390;7.180;2022-11-23T10:39:50;12.10;92.60
36450;DHT22;22475;51.390;7.180;2022-11-23T10:42:22;12.10;92.50
36450;DHT22;22475;51.390;7.180;2022-11-23T10:44:50;12.10;92.50
36450;DHT22;22475;51.390;7.180;2022-11-23T10:47:36;12.10;92.50
36450;DHT22;22475;51.390;7.180;2022-11-23T10:50:19;12.10;92.50
36450;DHT22;22475;51.390;7.180;2022-11-23T10:52:49;12.10;92.40
36450;DHT22;22475;51.390;7.180;2022-11-23T10:55:18;12.20;92.30
36450;DHT22;22475;51.390;7.180;2022-11-23T10:57:47;12.20;92.30
36450;DHT22;22475;51.390;7.180;2022-11-23T11:00:16;12.20;92.20
36450;DHT22;22475;51.390;7.180;2022-11-23T11:02:45;12.10;92.00
36450;DHT22;22475;51.390;7.180;2022-11-23T11:05:23;12.10;92.10
36450;DHT22;22475;51.390;7.180;2022-11-23T11:07:51;12.20;92.10
36450;DHT22;22475;51.390;7.180;2022-11-23T11:10:39;12.20;92.00
36450;DHT22;22475;51.390;7.180;2022-11-23T11:13:24;12.10;92.00
36450;DHT22;22475;51.390;7.180;2022-11-23T11:15:55;12.20;91.90
36450;DHT22;22475;51.390;7.180;2022-11-23T11:18:25;12.20;91.90
36450;DHT22;22475;51.390;7.180;2022-11-23T11:20:57;12.20;91.80
36450;DHT22;22475;51.390;7.180;2022-11-23T11:23:24;12.10;91.70
36450;DHT22;22475;51.390;7.180;2022-11-23T11:26:02;12.10;91.80
36450;DHT22;22475;51.390;7.180;2022-11-23T11:28:36;12.20;91.70
36450;DHT22;22475;51.390;7.180;2022-11-23T11:31:24;12.10;91.70
36450;DHT22;22475;51.390;7.180;2022-11-23T11:33:58;12.10;91.80
36450;DHT22;22475;51.390;7.180;2022-11-23T11:36:33;12.20;91.90
36450;DHT22;22475;51.390;7.180;2022-11-23T11:39:09;12.20;91.90
36450;DHT22;22475;51.390;7.180;2022-11-23T11:41:40;12.20;91.80
36450;DHT22;22475;51.390;7.180;2022-11-23T11:44:12;12.20;91.70
36450;DHT22;22475;51.390;7.180;2022-11-23T11:46:46;12.20;91.70
36450;DHT22;22475;51.390;7.180;2022-11-23T11:49:18;12.20;91.70
36450;DHT22;22475;51.390;7.180;2022-11-23T11:51:52;12.20;91.70
36450;DHT22;22475;51.390;7.180;2022-11-23T11:54:24;12.20;91.70
36450;DHT22;22475;51.390;7.180;2022-11-23T11:56:54;12.20;91.70
36450;DHT22;22475;51.390;7.180;2022-11-23T11:59:28;12.20;91.60
36450;DHT22;22475;51.390;7.180;2022-11-23T12:01:59;12.20;91.60
36450;DHT22;22475;51.390;7.180;2022-11-23T12:04:36;12.20;91.60
36450;DHT22;22475;51.390;7.180;2022-11-23T12:07:11;12.20;91.60
36450;DHT22;22475;51.390;7.180;2022-11-23T12:09:42;12.20;91.60
36450;DHT22;22475;51.390;7.180;2022-11-23T12:12:15;12.20;91.60
36450;DHT22;22475;51.390;7.180;2022-11-23T12:14:43;12.20;91.70
36450;DHT22;22475;51.390;7.180;2022-11-23T12:17:29;12.20;91.70
36450;DHT22;22475;51.390;7.180;2022-11-23T12:20:06;12.20;91.70
36450;DHT22;22475;51.390;7.180;2022-11-23T12:22:46;12.20;91.70
36450;DHT22;22475;51.390;7.180;2022-11-23T12:25:23;12.20;91.60
36450;DHT22;22475;51.390;7.180;2022-11-23T12:28:03;12.20;91.60
36450;DHT22;22475;51.390;7.180;2022-11-23T12:30:38;12.20;91.50
36450;DHT22;22475;51.390;7.180;2022-11-23T12:33:24;12.20;91.50
36450;DHT22;22475;51.390;7.180;2022-11-23T12:36:12;12.20;91.50
36450;DHT22;22475;51.390;7.180;2022-11-23T12:38:49;12.20;91.70
36450;DHT22;22475;51.390;7.180;2022-11-23T12:41:23;12.20;91.60
36450;DHT22;22475;51.390;7.180;2022-11-23T12:44:05;12.20;91.50
36450;DHT22;22475;51.390;7.180;2022-11-23T12:46:40;12.20;91.50
36450;DHT22;22475;51.390;7.180;2022-11-23T12:49:19;12.20;91.50
36450;DHT22;22475;51.390;7.180;2022-11-23T12:51:55;12.20;91.50
36450;DHT22;22475;51.390;7.180;2022-11-23T12:54:36;12.20;91.50
36450;DHT22;22475;51.390;7.180;2022-11-23T12:57:11;12.20;91.40
36450;DHT22;22475;51.390;7.180;2022-11-23T12:59:46;12.20;91.50
36450;DHT22;22475;51.390;7.180;2022-11-23T13:02:41;12.20;91.50
36450;DHT22;22475;51.390;7.180;2022-11-23T13:05:30;12.20;91.60
36450;DHT22;22475;51.390;7.180;2022-11-23T13:08:29;12.30;91.50
36450;DHT22;22475;51.390;7.180;2022-11-23T13:11:10;12.20;91.50
36450;DHT22;22475;51.390;7.180;2022-11-23T13:13:53;12.30;91.50
36450;DHT22;22475;51.390;7.180;2022-11-23T13:16:59;12.30;91.50
36450;DHT22;22475;51.390;7.180;2022-11-23T13:19:39;12.30;91.50
36450;DHT22;22475;51.390;7.180;2022-11-23T13:22:10;12.30;91.40
36450;DHT22;22475;51.390;7.180;2022-11-23T13:24:56;12.30;91.50
36450;DHT22;22475;51.390;7.180;2022-11-23T13:27:41;12.30;91.50
36450;DHT22;22475;51.390;7.180;2022-11-23T13:30:22;12.30;91.50
36450;DHT22;22475;51.390;7.180;2022-11-23T13:32:56;12.30;91.50
36450;DHT22;22475;51.390;7.180;2022-11-23T13:35:52;12.30;91.60
36450;DHT22;22475;51.390;7.180;2022-11-23T13:38:27;12.30;91.50
36450;DHT22;22475;51.390;7.180;2022-11-23T13:41:00;12.30;91.40
36450;DHT22;22475;51.390;7.180;2022-11-23T13:43:28;12.30;91.40
36450;DHT22;22475;51.390;7.180;2022-11-23T13:46:18;12.20;91.30
36450;DHT22;22475;51.390;7.180;2022-11-23T13:48:49;12.30;91.20
36450;DHT22;22475;51.390;7.180;2022-11-23T13:51:22;12.20;91.10
36450;DHT22;22475;51.390;7.180;2022-11-23T13:54:00;12.20;91.10
36450;DHT22;22475;51.390;7.180;2022-11-23T13:56:33;12.20;91.20
36450;DHT22;22475;51.390;7.180;2022-11-23T13:59:26;12.20;91.10
36450;DHT22;22475;51.390;7.180;2022-11-23T14:01:58;12.20;91.20
36450;DHT22;22475;51.390;7.180;2022-11-23T14:04:27;12.20;91.20
36450;DHT22;22475;51.390;7.180;2022-11-23T14:06:56;12.20;91.60
36450;DHT22;22475;51.390;7.180;2022-11-23T14:09:31;12.20;91.30
36450;DHT22;22475;51.390;7.180;2022-11-23T14:12:06;12.20;91.20
36450;DHT22;22475;51.390;7.180;2022-11-23T14:14:46;12.20;91.60
36450;DHT22;22475;51.390;7.180;2022-11-23T14:20:24;12.20;91.20
36450;DHT22;22475;51.390;7.180;2022-11-23T14:23:05;12.20;91.20
36450;DHT22;22475;51.390;7.180;2022-11-23T14:25:41;12.20;91.20
36450;DHT22;22475;51.390;7.180;2022-11-23T14:28:21;12.20;91.20
36450;DHT22;22475;51.390;7.180;2022-11-23T14:31:06;12.20;91.10
36450;DHT22;22475;51.390;7.180;2022-11-23T14:33:41;12.20;91.40
36450;DHT22;22475;51.390;7.180;2022-11-23T14:36:22;12.20;91.00
36450;DHT22;22475;51.390;7.180;2022-11-23T14:38:55;12.10;91.10
36450;DHT22;22475;51.390;7.180;2022-11-23T14:41:31;12.20;91.20
36450;DHT22;22475;51.390;7.180;2022-11-23T14:44:01;12.10;91.00
36450;DHT22;22475;51.390;7.180;2022-11-23T14:46:28;12.20;91.10
36450;DHT22;22475;51.390;7.180;2022-11-23T14:49:02;12.20;91.20
36450;DHT22;22475;51.390;7.180;2022-11-23T14:51:32;12.20;91.10
36450;DHT22;22475;51.390;7.180;2022-11-23T14:54:01;12.10;91.10
36450;DHT22;22475;51.390;7.180;2022-11-23T14:56:36;12.10;91.10
36450;DHT22;22475;51.390;7.180;2022-11-23T14:59:06;12.10;91.10
36450;DHT22;22475;51.390;7.180;2022-11-23T15:01:34;12.00;91.00
36450;DHT22;22475;51.390;7.180;2022-11-23T15:04:06;12.00;90.90
36450;DHT22;22475;51.390;7.180;2022-11-23T15:06:38;12.00;91.00
36450;DHT22;22475;51.390;7.180;2022-11-23T15:09:11;12.00;91.00
36450;DHT22;22475;51.390;7.180;2022-11-23T15:11:40;12.00;91.00
36450;DHT22;22475;51.390;7.180;2022-11-23T15:14:17;12.00;91.00
36450;DHT22;22475;51.390;7.180;2022-11-23T15:16:44;12.00;91.00
36450;DHT22;22475;51.390;7.180;2022-11-23T15:19:22;12.00;91.10
36450;DHT22;22475;51.390;7.180;2022-11-23T15:21:53;12.00;91.10
36450;DHT22;22475;51.390;7.180;2022-11-23T15:24:21;12.00;91.10
36450;DHT22;22475;51.390;7.180;2022-11-23T15:26:48;12.00;91.10
36450;DHT22;22475;51.390;7.180;2022-11-23T15:29:29;12.00;91.40
36450;DHT22;22475;51.390;7.180;2022-11-23T15:31:55;12.00;91.10
36450;DHT22;22475;51.390;7.180;2022-11-23T15:34:23;12.00;91.10
36450;DHT22;22475;51.390;7.180;2022-11-23T15:36:52;12.00;91.10
36450;DHT22;22475;51.390;7.180;2022-11-23T15:39:20;12.10;91.10
36450;DHT22;22475;51.390;7.180;2022-11-23T15:41:48;12.00;91.10
36450;DHT22;22475;51.390;7.180;2022-11-23T15:44:20;12.10;91.20
36450;DHT22;22475;51.390;7.180;2022-11-23T15:46:50;12.10;91.10
36450;DHT22;22475;51.390;7.180;2022-11-23T15:49:18;12.10;91.20
36450;DHT22;22475;51.390;7.180;2022-11-23T15:51:45;12.10;91.10
36450;DHT22;22475;51.390;7.180;2022-11-23T15:54:17;12.10;91.00